Time;durP1;ratioP1;P1;durP2;ratioP2;P2;SDS_P1;SDS_P2;PMS_P1;PMS_P2;Temp;Humidity;BMP_temperature;BMP_pressure;BME280_temperature;BME280_humidity;BME280_pressure;Samples;Min_cycle;Max_cycle;Signal;HPM_P1;HPM_P2
2023/12/26 00:00:27;;;;;;;;;;;18.40;65.10;;;;;;5052174;28;43060;-82
2023/12/26 00:02:53;;;;;;;;;;;18.30;65.10;;;;;;5063688;28;42798;-81
2023/12/26 00:05:18;;;;;;;;;;;18.20;65.10;;;;;;5062862;28;42875;-81
2023/12/26 00:07:44;;;;;;;;;;;18.30;65.10;;;;;;5063503;28;43035;-81
2023/12/26 00:10:10;;;;;;;;;;;18.40;65.20;;;;;;5044308;28;44629;-81
2023/12/26 00:12:36;;;;;;;;;;;18.20;65.10;;;;;;5045924;28;43272;-81
2023/12/26 00:15:01;;;;;;;;;;;18.30;65.40;;;;;;5055105;28;43578;-82
2023/12/26 00:17:27;;;;;;;;;;;18.40;65.40;;;;;;5064734;28;43264;-82
2023/12/26 00:19:53;;;;;;;;;;;18.20;65.30;;;;;;5062296;28;43020;-81
2023/12/26 00:22:18;;;;;;;;;;;18.30;65.50;;;;;;5064788;28;42842;-82
2023/12/26 00:24:44;;;;;;;;;;;18.20;65.40;;;;;;5050189;28;45928;-82
2023/12/26 00:27:09;;;;;;;;;;;18.30;65.30;;;;;;5075422;28;43052;-82
2023/12/26 00:29:35;;;;;;;;;;;;;;;;;;5068396;28;42858;-81
2023/12/26 00:32:01;;;;;;;;;;;18.30;65.40;;;;;;5066153;28;43029;-81
2023/12/26 00:34:26;;;;;;;;;;;18.20;65.30;;;;;;5065897;28;42954;-80
2023/12/26 00:36:52;;;;;;;;;;;18.20;65.50;;;;;;5065864;28;42985;-79
2023/12/26 00:39:17;;;;;;;;;;;18.30;65.30;;;;;;5065827;28;44322;-82
2023/12/26 00:41:43;;;;;;;;;;;18.20;65.30;;;;;;5066736;28;43114;-82
2023/12/26 00:44:09;;;;;;;;;;;18.20;65.40;;;;;;5047393;28;44932;-80
2023/12/26 00:46:34;;;;;;;;;;;18.40;65.60;;;;;;5065157;28;43066;-80
2023/12/26 00:49:00;;;;;;;;;;;18.30;65.40;;;;;;5066156;28;43032;-81
2023/12/26 00:51:25;;;;;;;;;;;18.20;65.40;;;;;;5065747;28;43757;-81
2023/12/26 00:53:51;;;;;;;;;;;18.30;65.60;;;;;;5066037;28;42878;-80
2023/12/26 00:56:17;;;;;;;;;;;18.10;65.50;;;;;;5066331;28;43251;-81
2023/12/26 00:58:44;;;;;;;;;;;;;;;;;;5065667;28;44069;-82
2023/12/26 01:01:09;;;;;;;;;;;18.30;65.80;;;;;;5066912;28;43158;-82
2023/12/26 01:03:35;;;;;;;;;;;18.20;65.70;;;;;;5065975;28;43451;-82
2023/12/26 01:06:01;;;;;;;;;;;18.30;65.80;;;;;;5065789;28;42820;-81
2023/12/26 01:08:27;;;;;;;;;;;18.30;65.80;;;;;;5065047;28;43507;-82
2023/12/26 01:10:52;;;;;;;;;;;18.20;65.90;;;;;;5062403;28;42948;-82
2023/12/26 01:13:18;;;;;;;;;;;18.10;65.90;;;;;;5063344;28;43357;-82
2023/12/26 01:15:43;;;;;;;;;;;18.20;66.10;;;;;;5065775;28;43122;-81
2023/12/26 01:18:09;;;;;;;;;;;18.30;66.30;;;;;;5065436;28;43026;-82
2023/12/26 01:20:34;;;;;;;;;;;18.10;66.10;;;;;;5065031;28;43317;-80
2023/12/26 01:23:00;;;;;;;;;;;18.30;66.30;;;;;;5064200;28;43127;-81
2023/12/26 01:25:25;;;;;;;;;;;18.00;66.30;;;;;;5064976;28;43020;-81
2023/12/26 01:27:51;;;;;;;;;;;18.20;66.40;;;;;;5076600;28;43048;-81
2023/12/26 01:30:17;;;;;;;;;;;18.30;66.50;;;;;;5065702;28;42953;-81
2023/12/26 01:32:42;;;;;;;;;;;18.20;66.50;;;;;;5064244;28;43036;-80
2023/12/26 01:35:08;;;;;;;;;;;18.30;66.70;;;;;;5064915;28;43276;-81
2023/12/26 01:37:33;;;;;;;;;;;18.30;66.80;;;;;;5064631;28;42976;-80
2023/12/26 01:39:59;;;;;;;;;;;18.20;67.00;;;;;;5065515;28;42969;-80
2023/12/26 01:42:24;;;;;;;;;;;18.20;67.30;;;;;;5065946;28;43049;-80
2023/12/26 01:44:50;;;;;;;;;;;18.10;66.80;;;;;;5066003;28;42932;-80
2023/12/26 01:47:16;;;;;;;;;;;18.20;67.00;;;;;;5065003;28;43031;-81
2023/12/26 01:49:42;;;;;;;;;;;18.20;67.40;;;;;;5065845;28;42931;-81
2023/12/26 01:52:08;;;;;;;;;;;18.20;67.10;;;;;;5064425;28;43986;-81
2023/12/26 01:54:35;;;;;;;;;;;18.20;67.10;;;;;;5064854;28;43078;-81
2023/12/26 01:57:02;;;;;;;;;;;18.10;67.50;;;;;;5045874;28;43683;-81
2023/12/26 01:59:28;;;;;;;;;;;18.20;67.30;;;;;;5047498;28;42985;-81
2023/12/26 02:01:53;;;;;;;;;;;18.20;67.00;;;;;;5065138;28;43028;-80
2023/12/26 02:04:19;;;;;;;;;;;18.20;67.20;;;;;;5046022;28;43036;-82
2023/12/26 02:06:44;;;;;;;;;;;18.30;67.50;;;;;;5057586;28;44265;-83
2023/12/26 02:09:11;;;;;;;;;;;18.20;67.50;;;;;;5065452;28;43250;-83
2023/12/26 02:11:38;;;;;;;;;;;18.30;67.70;;;;;;5045970;28;45403;-84
2023/12/26 02:14:06;;;;;;;;;;;18.20;67.30;;;;;;5063745;28;42985;-82
2023/12/26 02:16:34;;;;;;;;;;;18.20;67.10;;;;;;5063303;28;43504;-81
2023/12/26 02:18:59;;;;;;;;;;;18.00;67.40;;;;;;5065507;28;42866;-82
2023/12/26 02:21:25;;;;;;;;;;;18.30;67.20;;;;;;5064825;28;44151;-82
2023/12/26 02:23:54;;;;;;;;;;;18.20;67.20;;;;;;5064364;28;42944;-81
2023/12/26 02:26:21;;;;;;;;;;;18.10;65.40;;;;;;5064786;28;42875;-81
2023/12/26 02:28:47;;;;;;;;;;;18.10;67.60;;;;;;5064997;28;42894;-82
2023/12/26 02:31:13;;;;;;;;;;;18.40;67.40;;;;;;5061698;28;43601;-81
2023/12/26 02:33:39;;;;;;;;;;;18.30;67.30;;;;;;5048336;28;43065;-81
2023/12/26 02:36:05;;;;;;;;;;;18.30;67.50;;;;;;5068374;28;43089;-81
2023/12/26 02:38:30;;;;;;;;;;;18.20;67.70;;;;;;5067070;28;42937;-82
2023/12/26 02:40:56;;;;;;;;;;;18.20;67.50;;;;;;5064499;28;43902;-83
2023/12/26 02:43:21;;;;;;;;;;;18.30;67.80;;;;;;5064401;28;42833;-83
2023/12/26 02:45:48;;;;;;;;;;;18.40;67.90;;;;;;5063303;28;42928;-82
2023/12/26 02:48:17;;;;;;;;;;;18.10;67.70;;;;;;5064275;28;42931;-82
2023/12/26 02:50:43;;;;;;;;;;;18.10;65.50;;;;;;5064269;28;43843;-82
2023/12/26 02:53:09;;;;;;;;;;;18.30;68.10;;;;;;5062795;28;43253;-81
2023/12/26 02:55:35;;;;;;;;;;;18.30;67.90;;;;;;5063159;28;42978;-80
2023/12/26 02:58:00;;;;;;;;;;;18.20;67.80;;;;;;5045537;28;42982;-80
2023/12/26 03:00:26;;;;;;;;;;;18.20;68.00;;;;;;5062441;28;42916;-80
2023/12/26 03:02:51;;;;;;;;;;;18.20;68.00;;;;;;5063779;28;43009;-81
2023/12/26 03:05:17;;;;;;;;;;;18.20;68.20;;;;;;5045400;28;43615;-82
2023/12/26 03:07:42;;;;;;;;;;;18.10;68.40;;;;;;5063429;28;42958;-81
2023/12/26 03:10:09;;;;;;;;;;;;;;;;;;5063795;28;43962;-82
2023/12/26 03:12:37;;;;;;;;;;;18.20;68.30;;;;;;5065002;28;42933;-80
2023/12/26 03:15:03;;;;;;;;;;;18.30;68.40;;;;;;5049642;28;43508;-83
2023/12/26 03:17:29;;;;;;;;;;;18.20;68.20;;;;;;5062434;28;43020;-81
2023/12/26 03:19:55;;;;;;;;;;;18.20;68.30;;;;;;5062889;28;43126;-81
2023/12/26 03:22:20;;;;;;;;;;;18.40;68.40;;;;;;5061456;28;42908;-82
2023/12/26 03:24:46;;;;;;;;;;;18.20;68.20;;;;;;5045500;28;44546;-81
2023/12/26 03:27:12;;;;;;;;;;;18.40;68.40;;;;;;5064370;28;43813;-82
2023/12/26 03:29:38;;;;;;;;;;;18.20;68.60;;;;;;5063011;28;43089;-82
2023/12/26 03:32:04;;;;;;;;;;;18.30;68.20;;;;;;5063978;28;43004;-80
2023/12/26 03:34:42;;;;;;;;;;;18.30;68.10;;;;;;5050323;28;45419;-80
2023/12/26 03:37:07;;;;;;;;;;;18.40;68.40;;;;;;5044925;28;43459;-81
2023/12/26 03:39:33;;;;;;;;;;;18.10;68.20;;;;;;5064088;28;42876;-82
2023/12/26 03:41:58;;;;;;;;;;;18.30;68.60;;;;;;5063258;28;42937;-81
2023/12/26 03:44:24;;;;;;;;;;;18.20;68.60;;;;;;5063348;28;43015;-82
2023/12/26 03:46:49;;;;;;;;;;;18.20;68.70;;;;;;5063983;28;42938;-81
2023/12/26 03:49:15;;;;;;;;;;;18.20;68.50;;;;;;5061659;28;43030;-81
2023/12/26 03:51:40;;;;;;;;;;;18.40;68.90;;;;;;5062274;28;42993;-80
2023/12/26 03:54:06;;;;;;;;;;;18.30;68.80;;;;;;5062644;28;43211;-81
2023/12/26 03:56:32;;;;;;;;;;;18.20;68.80;;;;;;5063083;28;42876;-82
2023/12/26 03:58:58;;;;;;;;;;;18.30;68.70;;;;;;5063139;28;43037;-82
2023/12/26 04:01:24;;;;;;;;;;;18.40;68.70;;;;;;5045835;28;43023;-80
2023/12/26 04:03:49;;;;;;;;;;;18.30;68.70;;;;;;5063179;28;42846;-82
2023/12/26 04:06:15;;;;;;;;;;;18.20;68.70;;;;;;5062710;28;42894;-81
2023/12/26 04:08:41;;;;;;;;;;;18.30;68.70;;;;;;5062679;28;42959;-81
2023/12/26 04:11:06;;;;;;;;;;;18.30;68.80;;;;;;5063701;28;43355;-82
2023/12/26 04:13:32;;;;;;;;;;;18.30;68.90;;;;;;5060564;28;43246;-81
2023/12/26 04:15:57;;;;;;;;;;;18.40;68.90;;;;;;5063877;28;44003;-82
2023/12/26 04:18:23;;;;;;;;;;;18.30;68.80;;;;;;5061465;28;42920;-82
2023/12/26 04:20:48;;;;;;;;;;;18.20;68.70;;;;;;5062923;28;42962;-83
2023/12/26 04:23:14;;;;;;;;;;;18.40;68.80;;;;;;5072264;28;43460;-82
2023/12/26 04:25:40;;;;;;;;;;;18.40;68.80;;;;;;5063665;28;42962;-82
2023/12/26 04:28:05;;;;;;;;;;;18.30;68.80;;;;;;5063078;28;43000;-82
2023/12/26 04:30:31;;;;;;;;;;;18.20;68.60;;;;;;5070293;28;42979;-82
2023/12/26 04:32:56;;;;;;;;;;;18.10;68.60;;;;;;5067558;28;44007;-82
2023/12/26 04:35:22;;;;;;;;;;;18.10;68.30;;;;;;5061438;28;42978;-81
2023/12/26 04:37:47;;;;;;;;;;;18.30;68.50;;;;;;5062331;28;43001;-81
2023/12/26 04:40:13;;;;;;;;;;;18.40;68.60;;;;;;5062018;28;43051;-81
2023/12/26 04:42:39;;;;;;;;;;;18.20;68.30;;;;;;5061599;28;44509;-80
2023/12/26 04:45:04;;;;;;;;;;;18.20;68.40;;;;;;5062021;28;43319;-79
2023/12/26 04:47:30;;;;;;;;;;;18.10;68.30;;;;;;5062318;28;43547;-80
2023/12/26 04:49:55;;;;;;;;;;;18.30;68.30;;;;;;5062638;28;43078;-80
2023/12/26 04:52:21;;;;;;;;;;;18.20;68.20;;;;;;5062750;28;42937;-79
2023/12/26 04:54:46;;;;;;;;;;;18.10;68.30;;;;;;5070070;28;42834;-79
2023/12/26 04:57:12;;;;;;;;;;;18.40;68.60;;;;;;5063261;28;43060;-79
2023/12/26 04:59:38;;;;;;;;;;;18.20;68.30;;;;;;5062297;28;43330;-79
2023/12/26 05:02:03;;;;;;;;;;;18.20;68.30;;;;;;5061029;28;43470;-81
2023/12/26 05:04:29;;;;;;;;;;;18.20;68.30;;;;;;5061886;28;43001;-80
2023/12/26 05:06:54;;;;;;;;;;;18.20;68.30;;;;;;5061722;28;42977;-80
2023/12/26 05:09:20;;;;;;;;;;;18.30;68.30;;;;;;5063267;28;43117;-80
2023/12/26 05:11:45;;;;;;;;;;;18.20;68.50;;;;;;5064857;28;44073;-80
2023/12/26 05:14:11;;;;;;;;;;;18.40;68.30;;;;;;5065633;28;42807;-80
2023/12/26 05:16:40;;;;;;;;;;;18.10;68.40;;;;;;5065553;28;43599;-80
2023/12/26 05:19:07;;;;;;;;;;;18.30;68.60;;;;;;5056972;28;42940;-80
2023/12/26 05:21:32;;;;;;;;;;;18.20;68.50;;;;;;5049846;28;43206;-80
2023/12/26 05:23:58;;;;;;;;;;;18.30;68.40;;;;;;5055264;28;42996;-80
2023/12/26 05:26:23;;;;;;;;;;;18.10;68.30;;;;;;5065808;28;43505;-81
2023/12/26 05:28:49;;;;;;;;;;;18.30;68.40;;;;;;5066059;28;43057;-82
2023/12/26 05:31:18;;;;;;;;;;;18.20;68.50;;;;;;5065712;28;43068;-82
2023/12/26 05:33:43;;;;;;;;;;;18.20;68.50;;;;;;5067447;28;42997;-82
2023/12/26 05:36:09;;;;;;;;;;;18.30;68.50;;;;;;5046560;28;44358;-84
2023/12/26 05:38:34;;;;;;;;;;;;;;;;;;5064456;28;42966;-84
2023/12/26 05:41:02;;;;;;;;;;;18.20;68.50;;;;;;5065967;28;43528;-82
2023/12/26 05:43:28;;;;;;;;;;;18.30;68.70;;;;;;5065341;28;42991;-82
2023/12/26 05:45:53;;;;;;;;;;;18.10;69.00;;;;;;5065717;28;43709;-82
2023/12/26 05:48:19;;;;;;;;;;;18.20;68.50;;;;;;5065356;28;42917;-81
2023/12/26 05:50:44;;;;;;;;;;;18.30;68.80;;;;;;5064576;28;42916;-82
2023/12/26 05:53:10;;;;;;;;;;;18.30;68.80;;;;;;5065968;28;43175;-82
2023/12/26 05:55:35;;;;;;;;;;;18.30;68.70;;;;;;5065867;28;43416;-81
2023/12/26 05:58:01;;;;;;;;;;;18.30;68.70;;;;;;5065992;28;43032;-82
2023/12/26 06:00:26;;;;;;;;;;;18.20;68.50;;;;;;5046926;28;45462;-82
2023/12/26 06:02:52;;;;;;;;;;;18.20;68.60;;;;;;5047719;28;43134;-81
2023/12/26 06:05:17;;;;;;;;;;;18.30;68.60;;;;;;5065109;28;43701;-81
2023/12/26 06:07:43;;;;;;;;;;;18.40;68.70;;;;;;5047812;28;42843;-81
2023/12/26 06:10:09;;;;;;;;;;;18.30;68.90;;;;;;5047150;28;44126;-81
2023/12/26 06:12:34;;;;;;;;;;;18.40;67.80;;;;;;5047541;28;43003;-79
2023/12/26 06:15:00;;;;;;;;;;;18.20;68.60;;;;;;5049332;28;43616;-80
2023/12/26 06:17:26;;;;;;;;;;;18.30;68.60;;;;;;5057344;28;42928;-79
2023/12/26 06:19:51;;;;;;;;;;;18.10;68.60;;;;;;5045218;28;43022;-79
2023/12/26 06:22:17;;;;;;;;;;;18.30;68.60;;;;;;5056111;28;42884;-79
2023/12/26 06:24:43;;;;;;;;;;;18.20;68.60;;;;;;5051987;28;43826;-79
2023/12/26 06:27:08;;;;;;;;;;;18.30;68.10;;;;;;5043305;28;43117;-79
2023/12/26 06:29:33;;;;;;;;;;;18.20;68.70;;;;;;5050728;28;43070;-79
2023/12/26 06:31:59;;;;;;;;;;;18.00;68.40;;;;;;5035219;28;43406;-77
2023/12/26 06:34:25;;;;;;;;;;;18.30;68.10;;;;;;5057772;28;43834;-79
2023/12/26 06:36:50;;;;;;;;;;;18.30;68.30;;;;;;5060407;28;43079;-79
2023/12/26 06:39:16;;;;;;;;;;;18.30;68.50;;;;;;5054447;28;43407;-80
2023/12/26 06:41:43;;;;;;;;;;;18.10;68.40;;;;;;5060057;28;43001;-80
2023/12/26 06:44:08;;;;;;;;;;;18.30;68.80;;;;;;5055914;28;43496;-80
2023/12/26 06:46:39;;;;;;;;;;;18.30;68.70;;;;;;5061075;28;42778;-79
2023/12/26 06:49:04;;;;;;;;;;;18.20;68.70;;;;;;5055910;28;43452;-79
2023/12/26 06:51:30;;;;;;;;;;;18.30;68.70;;;;;;5059358;28;43300;-79
2023/12/26 07:06:27;;;;;;;;;;;18.50;64.50;;;;;;5129479;27;43754;-82
2023/12/26 07:08:53;;;;;;;;;;;16.20;65.90;;;;;;5120207;27;43427;-80
2023/12/26 07:11:18;;;;;;;;;;;18.20;67.30;;;;;;5121282;27;42897;-81
2023/12/26 07:13:44;;;;;;;;;;;18.20;67.20;;;;;;5120136;27;44001;-84
2023/12/26 07:16:09;;;;;;;;;;;18.20;67.40;;;;;;5118568;27;42885;-81
2023/12/26 07:18:35;;;;;;;;;;;18.30;67.60;;;;;;5120185;27;43040;-83
2023/12/26 07:21:02;;;;;;;;;;;;;;;;;;5120949;27;42905;-83
2023/12/26 07:23:27;;;;;;;;;;;18.20;67.10;;;;;;5120278;27;43131;-82
2023/12/26 07:25:53;;;;;;;;;;;18.20;67.10;;;;;;5120287;27;44050;-82
2023/12/26 07:28:18;;;;;;;;;;;18.30;67.10;;;;;;5121407;27;43148;-83
2023/12/26 07:30:44;;;;;;;;;;;18.20;67.30;;;;;;5121112;27;42979;-81
2023/12/26 07:33:10;;;;;;;;;;;18.30;67.00;;;;;;5120377;27;43035;-82
2023/12/26 07:35:36;;;;;;;;;;;18.20;66.50;;;;;;5120607;27;42951;-82
2023/12/26 07:38:02;;;;;;;;;;;18.20;66.00;;;;;;5119910;27;43045;-81
2023/12/26 07:40:29;;;;;;;;;;;18.20;66.20;;;;;;5121031;27;42892;-81
2023/12/26 07:42:54;;;;;;;;;;;18.10;67.20;;;;;;5120687;27;42983;-83
2023/12/26 07:45:23;;;;;;;;;;;18.10;66.50;;;;;;5120956;27;43084;-81
2023/12/26 07:47:48;;;;;;;;;;;18.20;66.00;;;;;;5119472;27;43628;-82
2023/12/26 07:50:14;;;;;;;;;;;18.10;65.70;;;;;;5120572;27;43271;-82
2023/12/26 07:52:39;;;;;;;;;;;18.30;65.50;;;;;;5120922;27;43000;-83
2023/12/26 07:55:05;;;;;;;;;;;18.30;65.40;;;;;;5119149;27;43057;-83
2023/12/26 07:57:31;;;;;;;;;;;18.00;65.40;;;;;;5119955;27;43062;-81
2023/12/26 07:59:56;;;;;;;;;;;18.20;66.20;;;;;;5120456;27;43049;-81
2023/12/26 08:02:22;;;;;;;;;;;18.10;65.40;;;;;;5109438;27;43569;-81
2023/12/26 08:04:47;;;;;;;;;;;18.20;66.00;;;;;;5115716;27;43002;-82
2023/12/26 08:07:13;;;;;;;;;;;18.00;64.70;;;;;;5106582;27;42851;-81
2023/12/26 08:09:38;;;;;;;;;;;18.20;65.70;;;;;;5106387;27;43362;-82
2023/12/26 08:12:04;;;;;;;;;;;18.20;66.70;;;;;;5105230;27;43005;-80
2023/12/26 08:14:30;;;;;;;;;;;18.20;65.40;;;;;;5105947;27;42995;-80
2023/12/26 08:16:55;;;;;;;;;;;18.00;65.10;;;;;;5104027;27;42963;-80
2023/12/26 08:19:21;;;;;;;;;;;18.00;64.10;;;;;;5103888;27;43652;-81
2023/12/26 08:21:46;;;;;;;;;;;18.00;64.00;;;;;;5099257;27;43457;-82
2023/12/26 08:24:12;;;;;;;;;;;18.10;64.10;;;;;;5105172;27;43465;-81
2023/12/26 08:26:38;;;;;;;;;;;18.10;64.10;;;;;;5101138;27;42952;-82
2023/12/26 08:29:04;;;;;;;;;;;;;;;;;;5105278;27;42977;-81
2023/12/26 08:31:29;;;;;;;;;;;18.10;64.80;;;;;;5104977;27;43675;-80
2023/12/26 08:33:55;;;;;;;;;;;18.10;64.50;;;;;;5106073;27;42984;-81
2023/12/26 08:36:21;;;;;;;;;;;18.20;64.30;;;;;;5106290;27;43047;-80
2023/12/26 08:38:46;;;;;;;;;;;18.10;63.50;;;;;;5104260;27;42968;-80
2023/12/26 08:41:13;;;;;;;;;;;18.10;63.40;;;;;;5106249;27;43512;-80
2023/12/26 08:43:38;;;;;;;;;;;18.10;63.80;;;;;;5104383;27;43017;-80
2023/12/26 08:46:04;;;;;;;;;;;18.00;64.00;;;;;;5105394;27;43526;-80
2023/12/26 08:48:30;;;;;;;;;;;18.10;64.40;;;;;;5097259;27;43130;-79
2023/12/26 08:50:55;;;;;;;;;;;18.00;65.10;;;;;;5103976;27;43497;-80
2023/12/26 08:53:21;;;;;;;;;;;18.10;65.10;;;;;;5106549;27;42970;-80
2023/12/26 08:55:49;;;;;;;;;;;18.10;64.60;;;;;;5100661;27;43002;-79
2023/12/26 08:58:14;;;;;;;;;;;18.00;66.40;;;;;;5093982;27;43161;-77
2023/12/26 09:00:40;;;;;;;;;;;18.20;66.10;;;;;;5101716;27;43166;-80
2023/12/26 09:03:07;;;;;;;;;;;18.10;66.00;;;;;;5096715;27;42998;-80
2023/12/26 09:05:33;;;;;;;;;;;18.20;66.10;;;;;;5090890;27;45648;-79
2023/12/26 09:07:58;;;;;;;;;;;18.20;66.80;;;;;;5101145;27;42982;-79
2023/12/26 09:10:24;;;;;;;;;;;18.20;66.40;;;;;;5097744;27;43058;-79
2023/12/26 09:12:50;;;;;;;;;;;;;;;;;;5098944;27;42951;-80
2023/12/26 09:15:15;;;;;;;;;;;18.20;67.10;;;;;;5101957;27;43669;-79
2023/12/26 09:17:42;;;;;;;;;;;18.20;67.10;;;;;;5105848;27;43239;-79
2023/12/26 09:20:09;;;;;;;;;;;18.30;67.60;;;;;;5102114;27;42995;-80
2023/12/26 09:22:35;;;;;;;;;;;18.30;67.90;;;;;;5105546;27;43988;-80
2023/12/26 09:25:00;;;;;;;;;;;18.20;67.80;;;;;;5098592;27;43412;-79
2023/12/26 09:27:26;;;;;;;;;;;18.20;68.10;;;;;;5106130;27;43245;-79
2023/12/26 09:29:51;;;;;;;;;;;18.30;67.90;;;;;;5102047;27;43057;-80
2023/12/26 09:32:17;;;;;;;;;;;18.20;68.40;;;;;;5098892;27;43697;-80
2023/12/26 09:34:42;;;;;;;;;;;18.20;68.10;;;;;;5109178;27;43917;-80
2023/12/26 09:37:08;;;;;;;;;;;18.30;68.40;;;;;;5101773;27;43391;-79
2023/12/26 09:39:34;;;;;;;;;;;;;;;;;;5108308;27;43532;-80
2023/12/26 09:42:02;;;;;;;;;;;18.40;67.60;;;;;;5093565;27;43127;-80
2023/12/26 09:44:28;;;;;;;;;;;18.30;69.10;;;;;;5100789;27;42979;-80
2023/12/26 09:46:53;;;;;;;;;;;18.20;68.80;;;;;;5100742;27;43117;-80
2023/12/26 09:49:19;;;;;;;;;;;18.40;68.90;;;;;;5102849;27;44381;-79
2023/12/26 09:51:44;;;;;;;;;;;18.30;68.90;;;;;;5108094;27;42982;-79
2023/12/26 09:54:11;;;;;;;;;;;18.20;69.10;;;;;;5100098;27;43795;-83
2023/12/26 09:56:37;;;;;;;;;;;;;;;;;;5104643;27;43163;-80
2023/12/26 09:59:03;;;;;;;;;;;18.30;67.80;;;;;;5098017;27;42987;-85
2023/12/26 10:01:28;;;;;;;;;;;18.40;68.00;;;;;;5101634;27;43157;-81
2023/12/26 10:03:56;;;;;;;;;;;18.20;68.70;;;;;;5106078;27;43514;-86
2023/12/26 10:06:22;;;;;;;;;;;18.40;68.30;;;;;;5105302;27;43091;-77
2023/12/26 10:08:47;;;;;;;;;;;18.30;67.80;;;;;;5101648;27;43692;-87
2023/12/26 10:11:13;;;;;;;;;;;18.40;68.50;;;;;;5086923;27;42974;-78
2023/12/26 10:13:53;;;;;;;;;;;18.20;67.90;;;;;;5095648;27;43114;-80
2023/12/26 10:16:19;;;;;;;;;;;18.30;66.10;;;;;;5093584;27;43394;-81
2023/12/26 10:18:45;;;;;;;;;;;18.30;66.40;;;;;;5103865;27;43389;-82
2023/12/26 10:21:11;;;;;;;;;;;18.20;62.40;;;;;;5106544;27;42951;-79
2023/12/26 10:23:37;;;;;;;;;;;18.10;65.50;;;;;;5103793;27;42966;-81
2023/12/26 10:26:02;;;;;;;;;;;18.00;65.10;;;;;;5102799;27;43766;-85
2023/12/26 10:28:28;;;;;;;;;;;18.10;66.10;;;;;;5099676;27;43011;-79
2023/12/26 10:30:54;;;;;;;;;;;18.20;66.20;;;;;;5108944;27;42904;-81
2023/12/26 10:33:24;;;;;;;;;;;18.00;66.30;;;;;;5115625;27;42908;-79
2023/12/26 10:36:02;;;;;;;;;;;18.10;65.50;;;;;;5093542;27;43131;-80
2023/12/26 10:38:28;;;;;;;;;;;18.10;67.40;;;;;;5100454;27;44163;-78
2023/12/26 10:40:56;;;;;;;;;;;18.10;68.00;;;;;;5104598;27;42947;-79
2023/12/26 10:43:22;;;;;;;;;;;18.40;68.40;;;;;;5102977;27;42971;-77
2023/12/26 10:45:48;;;;;;;;;;;18.20;68.90;;;;;;5100897;27;43019;-78
2023/12/26 10:48:15;;;;;;;;;;;18.20;69.70;;;;;;5103974;27;42993;-76
2023/12/26 10:50:40;;;;;;;;;;;18.20;70.00;;;;;;5108319;27;42930;-77
2023/12/26 10:53:16;;;;;;;;;;;18.40;70.10;;;;;;5101668;27;42988;-82
2023/12/26 10:55:45;;;;;;;;;;;18.60;70.20;;;;;;5100457;27;43144;-78
2023/12/26 10:58:23;;;;;;;;;;;18.30;68.10;;;;;;5094022;27;43711;-78
2023/12/26 11:01:17;;;;;;;;;;;18.50;70.50;;;;;;5091563;27;42922;-80
2023/12/26 13:51:35;;;;;;;;;;;18.60;72.70;;;;;;5092910;27;43238;-83
2023/12/26 13:54:21;;;;;;;;;;;18.60;72.40;;;;;;5097007;27;44357;-82
2023/12/26 13:57:06;;;;;;;;;;;18.60;72.40;;;;;;5089559;27;43123;-82
2023/12/26 14:02:19;;;;;;;;;;;18.50;71.80;;;;;;4991728;28;44239;-82
2023/12/26 14:05:04;;;;;;;;;;;18.60;71.60;;;;;;5007225;28;43038;-80
2023/12/26 14:07:49;;;;;;;;;;;18.60;72.00;;;;;;4999955;28;42933;-82
2023/12/26 14:10:14;;;;;;;;;;;18.50;71.60;;;;;;4999300;28;43180;-80
2023/12/26 14:12:40;;;;;;;;;;;18.60;72.10;;;;;;4993485;28;43408;-81
2023/12/26 14:15:05;;;;;;;;;;;18.50;72.20;;;;;;5002196;28;43194;-80
2023/12/26 14:17:31;;;;;;;;;;;18.70;72.60;;;;;;4985977;28;43074;-81
2023/12/26 14:19:57;;;;;;;;;;;18.40;72.80;;;;;;5003622;28;43265;-82
2023/12/26 14:22:23;;;;;;;;;;;18.70;72.90;;;;;;5001071;28;43081;-82
2023/12/26 14:24:49;;;;;;;;;;;18.50;72.90;;;;;;5011374;28;42944;-81
2023/12/26 14:27:14;;;;;;;;;;;18.50;72.80;;;;;;5006918;28;43179;-81
2023/12/26 14:29:40;;;;;;;;;;;18.50;73.40;;;;;;5006230;28;43274;-81
2023/12/26 14:32:05;;;;;;;;;;;18.50;72.90;;;;;;5008746;28;43063;-80
2023/12/26 14:34:31;;;;;;;;;;;18.50;72.80;;;;;;5008032;28;43178;-81
2023/12/26 14:36:56;;;;;;;;;;;18.90;73.10;;;;;;5001548;28;43262;-80
2023/12/26 14:39:22;;;;;;;;;;;18.60;72.10;;;;;;5001793;28;44658;-79
2023/12/26 14:41:47;;;;;;;;;;;18.50;72.00;;;;;;5005599;28;43098;-81
2023/12/26 14:44:13;;;;;;;;;;;;;;;;;;4997587;28;42898;-81
2023/12/26 14:46:39;;;;;;;;;;;18.60;72.90;;;;;;5005780;28;43126;-81
2023/12/26 14:49:04;;;;;;;;;;;18.40;72.90;;;;;;5007824;28;43099;-80
2023/12/26 14:51:30;;;;;;;;;;;18.70;73.00;;;;;;5005607;28;43241;-80
2023/12/26 14:53:55;;;;;;;;;;;18.70;73.90;;;;;;5006243;28;45676;-81
2023/12/26 14:56:21;;;;;;;;;;;18.60;73.10;;;;;;5001535;28;42888;-81
2023/12/26 14:58:47;;;;;;;;;;;;;;;;;;4988660;28;44690;-80
2023/12/26 15:01:13;;;;;;;;;;;18.70;73.20;;;;;;5004016;28;43011;-80
2023/12/26 15:03:38;;;;;;;;;;;18.70;73.00;;;;;;5005218;28;42965;-79
2023/12/26 15:06:04;;;;;;;;;;;18.80;73.10;;;;;;5012499;28;43023;-79
2023/12/26 15:08:29;;;;;;;;;;;18.60;73.00;;;;;;5013232;28;42967;-79
2023/12/26 15:10:55;;;;;;;;;;;23.40;76.20;;;;;;5010352;28;42945;-80
2023/12/26 15:13:21;;;;;;;;;;;18.60;73.00;;;;;;4989564;28;44020;-79
2023/12/26 15:15:46;;;;;;;;;;;18.70;73.00;;;;;;5004801;28;43169;-78
2023/12/26 15:18:12;;;;;;;;;;;19.00;73.70;;;;;;5014603;28;43554;-80
2023/12/26 15:20:39;;;;;;;;;;;18.60;72.90;;;;;;4992168;28;43050;-81
2023/12/26 15:23:05;;;;;;;;;;;18.60;73.30;;;;;;4989975;28;44918;-81
2023/12/26 15:25:30;;;;;;;;;;;18.50;73.50;;;;;;5005216;28;43266;-81
2023/12/26 15:27:56;;;;;;;;;;;18.50;73.00;;;;;;5004147;28;44478;-81
2023/12/26 15:30:23;;;;;;;;;;;18.70;73.00;;;;;;4993680;28;42928;-81
2023/12/26 15:32:49;;;;;;;;;;;18.70;73.50;;;;;;5010676;28;42997;-82
2023/12/26 15:35:15;;;;;;;;;;;18.80;73.40;;;;;;5009004;28;43000;-82
2023/12/26 15:37:40;;;;;;;;;;;18.80;72.90;;;;;;5014271;28;42925;-81
2023/12/26 15:40:06;;;;;;;;;;;18.70;72.90;;;;;;5010906;28;42871;-82
2023/12/26 15:42:32;;;;;;;;;;;18.60;72.90;;;;;;5010883;28;43448;-81
2023/12/26 15:44:58;;;;;;;;;;;18.70;72.90;;;;;;5008065;28;43019;-82
2023/12/26 15:47:23;;;;;;;;;;;18.60;73.20;;;;;;5019028;28;43880;-82
2023/12/26 15:49:49;;;;;;;;;;;18.60;73.20;;;;;;5015415;28;42900;-80
2023/12/26 15:52:14;;;;;;;;;;;18.70;72.80;;;;;;5014238;28;43068;-80
2023/12/26 15:54:40;;;;;;;;;;;18.70;72.50;;;;;;4996841;28;43092;-80
2023/12/26 15:57:06;;;;;;;;;;;18.80;72.70;;;;;;5002647;28;43420;-80
2023/12/26 15:59:31;;;;;;;;;;;18.50;72.50;;;;;;5014809;28;42908;-80
2023/12/26 16:01:57;;;;;;;;;;;18.60;72.70;;;;;;5013669;28;42889;-80
2023/12/26 16:04:23;;;;;;;;;;;18.70;72.70;;;;;;5007153;28;43062;-83
2023/12/26 16:06:49;;;;;;;;;;;18.80;72.60;;;;;;4989751;28;45342;-83
2023/12/26 16:09:15;;;;;;;;;;;18.80;72.60;;;;;;5015462;28;42893;-83
2023/12/26 16:11:42;;;;;;;;;;;18.80;72.70;;;;;;5008567;28;42981;-81
2023/12/26 16:14:08;;;;;;;;;;;18.90;72.70;;;;;;5005673;28;42993;-81
2023/12/26 16:16:40;;;;;;;;;;;18.70;72.70;;;;;;5006319;28;43573;-81
2023/12/26 16:19:06;;;;;;;;;;;18.70;72.60;;;;;;5006718;28;42981;-82
2023/12/26 16:21:31;;;;;;;;;;;18.80;72.70;;;;;;5001755;28;43493;-82
2023/12/26 16:23:57;;;;;;;;;;;18.80;72.70;;;;;;5007780;28;43128;-82
2023/12/26 16:26:22;;;;;;;;;;;18.60;72.40;;;;;;5013593;28;42973;-81
2023/12/26 16:28:51;;;;;;;;;;;18.70;72.20;;;;;;5005087;28;43240;-80
2023/12/26 16:31:17;;;;;;;;;;;18.90;72.40;;;;;;5002094;28;43520;-81
2023/12/26 16:33:43;;;;;;;;;;;;;;;;;;5006855;28;42845;-79
2023/12/26 16:36:09;;;;;;;;;;;18.80;71.90;;;;;;5015760;28;43807;-79
2023/12/26 16:38:35;;;;;;;;;;;18.70;72.00;;;;;;5013303;28;43053;-80
2023/12/26 16:41:07;;;;;;;;;;;18.80;72.00;;;;;;5007146;28;43713;-81
2023/12/26 16:43:33;;;;;;;;;;;18.80;72.00;;;;;;5006054;28;43234;-81
2023/12/26 16:45:58;;;;;;;;;;;18.80;71.90;;;;;;5008375;28;42990;-81
2023/12/26 16:48:24;;;;;;;;;;;18.80;72.10;;;;;;5005249;28;42925;-80
2023/12/26 16:50:49;;;;;;;;;;;18.80;71.80;;;;;;5005673;28;43694;-80
2023/12/26 16:53:15;;;;;;;;;;;18.80;71.70;;;;;;5002175;28;42987;-81
2023/12/26 16:55:40;;;;;;;;;;;18.90;71.90;;;;;;5004096;28;43143;-80
2023/12/26 16:58:06;;;;;;;;;;;18.80;71.60;;;;;;5006440;28;43177;-81
2023/12/26 17:00:31;;;;;;;;;;;18.80;72.20;;;;;;4999692;28;43881;-81
2023/12/26 17:02:57;;;;;;;;;;;18.70;71.60;;;;;;4983522;28;43466;-80
2023/12/26 17:05:22;;;;;;;;;;;18.90;72.20;;;;;;5006052;28;42977;-82
2023/12/26 17:07:48;;;;;;;;;;;18.80;72.40;;;;;;5001640;28;42963;-83
2023/12/26 17:10:14;;;;;;;;;;;18.80;71.70;;;;;;4997917;28;44831;-82
2023/12/26 17:12:39;;;;;;;;;;;18.80;71.70;;;;;;5012212;28;42976;-83
2023/12/26 17:15:05;;;;;;;;;;;18.80;71.70;;;;;;5017076;28;43327;-81
2023/12/26 17:17:31;;;;;;;;;;;18.80;71.70;;;;;;5005190;28;42975;-83